Capitol Logistics 3252




MYNN
Lynden Pindling International Airport
Nassau, BS
KMIA
Miami International Airport
Miami, US

Activity Log

Date Flight Route Aircraft Duration
03/17/2021 CPX3252 JAVIS2 JAVIS HINZY RAJAY BR53V VKZ MARYD VP019 VP022 VP020 EPENY SF34 0h 59m
04/14/2020 CPX3252 ZQA FOWEE9 SF34 1h 31m
11/05/2019 CPX652 ZQA FOWEE9 SF34 0h 59m
10/12/2019 CPX652 ZQA FOWEE9 SF34 1h 14m
09/14/2019 CPX652 ZQA FOWEE9 SF34 0h 47m
09/12/2019 CPX652 ZQA FOWEE9 SF34 0h 46m
09/04/2019 CPX652 ZQA FOWEE9 SF34 0h 43m
08/23/2019 CPX652 ZQA FOWEE9 SF34 0h 44m
06/27/2019 CPX652 ZQA FOWEE9 SF34 0h 43m
06/26/2019 CPX652 ZQA FOWEE9 SF34 0h 44m

Route Details

Aircraft Information
Primary: Saab 340AF
Backup: Not Available
Route Data
Distance: 160nm
Duration: 1h 10m
Recm'd Route: ZQA FOWEE9
Origin Wx: MYNN 180200Z 04004KT 9999 FEW025 25/23 A2995
Dest. Wx: KMIA 180153Z 28006KT 10SM CLR 26/18 A2991 RMK AO2 SLP128 T02610178 $
Notes: